Date,TemperatureHighF,TemperatureAvgF,TemperatureLowF,DewpointHighF,DewpointAvgF,DewpointLowF,HumidityHigh,HumidityAvg,HumidityLow,PressureMaxIn,PressureMinIn,WindSpeedMaxMPH,WindSpeedAvgMPH,GustSpeedMaxMPH,PrecipitationSumIn
2013-1-1,34,25,17,30,18,10,95,76,61,30.02,29.79,22,9,32,0.00
2013-1-2,25,19,4,22,13,-4,90,78,64,30.28,29.95,18,6,26,0.00
2013-1-3,29,9,-4,25,5,-9,97,83,68,30.28,29.97,15,1,22,0.00
2013-1-4,35,31,28,27,24,21,86,73,61,29.98,29.87,20,9,31,0.00
2013-1-5,34,32,27,27,24,22,82,74,63,30.28,29.97,19,6,30,0.00
2013-1-6,39,34,28,33,29,23,93,83,69,30.12,29.90,15,3,22,0.00
2013-1-7,35,25,16,32,22,14,95,89,80,30.41,30.01,14,4,21,0.00
2013-1-8,41,23,12,28,19,10,97,85,58,30.36,30.22,4,0,5,0.00
2013-1-9,48,33,17,36,26,15,96,77,58,30.34,29.95,34,6,50,0.00
2013-1-10,41,34,24,30,27,22,93,75,63,30.57,30.23,27,6,41,0.00
2013-1-11,35,32,25,34,29,23,98,89,73,30.51,30.02,9,2,16,0.22
2013-1-12,49,39,34,44,37,33,99,94,76,30.08,30.02,7,0,13,0.00
2013-1-13,56,45,35,52,43,35,99,94,83,30.05,29.82,11,1,17,0.00
2013-1-14,44,37,31,44,32,22,99,83,67,30.36,29.76,20,7,32,0.01
2013-1-15,32,30,28,27,25,22,91,81,69,30.38,30.21,9,2,12,0.00
2013-1-16,35,30,25,30,27,23,98,90,75,30.21,29.80,8,1,12,0.00
2013-1-17,36,28,19,30,19,9,85,70,58,30.19,29.85,20,6,28,0.00
2013-1-18,27,19,14,16,10,2,87,69,53,30.43,30.15,11,2,16,0.00
2013-1-19,47,40,27,30,22,14,64,49,42,30.16,29.65,14,5,22,0.00
2013-1-20,47,33,20,35,21,12,94,64,42,30.05,29.43,31,12,52,0.00
2013-1-21,21,18,14,18,16,10,94,90,82,30.05,29.83,15,2,21,0.00
2013-1-22,17,12,7,14,5,-2,92,75,53,30.17,29.84,20,9,31,0.00
2013-1-23,9,1,-10,1,-5,-14,88,76,60,30.28,30.16,10,1,14,0.00
2013-1-24,12,2,-12,9,-3,-16,89,81,66,30.48,30.18,16,4,23,0.00
2013-1-25,15,9,0,8,3,-4,90,78,65,30.48,30.12,15,2,22,0.00
2013-1-26,17,6,-4,10,2,-6,92,83,65,30.40,30.11,12,1,18,0.00
2013-1-27,22,13,0,11,7,-3,92,77,54,30.59,30.40,7,1,12,0.00
2013-1-28,30,23,17,29,19,9,98,86,70,30.46,29.91,8,2,14,0.00
2013-1-29,38,34,30,37,33,29,99,98,95,30.09,29.86,7,1,13,0.36
2013-1-30,61,51,36,55,48,36,100,90,78,29.86,29.10,19,6,27,0.26
2013-1-31,54,34,24,52,26,13,95,73,54,29.65,28.93,32,13,44,0.51
2013-2-1,24,20,16,18,15,12,93,83,62,30.20,29.65,20,8,28,0.00
2013-2-2,20,16,8,14,11,5,93,83,67,30.20,30.01,10,2,15,0.00
2013-2-3,27,15,2,18,11,-1,93,83,64,30.01,29.79,9,1,13,0.00
2013-2-4,20,18,14,17,14,12,93,87,76,29.96,29.82,17,5,24,0.00
2013-2-5,26,16,4,14,11,1,93,79,58,30.02,29.87,7,1,12,0.00
2013-2-6,28,21,8,25,14,4,94,77,54,30.41,29.89,19,6,26,0.00
2013-2-7,28,17,4,13,8,1,91,69,51,30.52,30.24,11,2,20,0.00
2013-2-8,29,25,21,25,20,11,96,83,64,30.24,29.81,13,4,28,0.00
2013-2-9,24,15,3,23,11,-1,96,85,72,30.44,29.93,16,6,21,0.00
2013-2-10,32,17,-3,19,9,-6,92,74,51,30.50,30.10,11,2,16,0.00
2013-2-11,46,34,25,38,28,11,95,78,56,30.11,29.59,17,4,28,0.13
2013-2-12,35,33,30,30,28,25,95,81,69,29.94,29.69,22,10,38,0.00
2013-2-13,41,31,22,28,23,19,90,73,47,29.90,29.73,11,2,14,0.00
2013-2-14,38,31,20,33,25,18,94,80,61,29.95,29.77,7,1,13,0.00
2013-2-15,39,35,28,33,28,23,93,75,56,30.02,29.79,17,6,25,0.00
2013-2-16,30,24,16,23,16,10,88,71,43,30.05,29.91,13,4,18,0.00
2013-2-17,18,14,10,11,8,4,89,76,64,30.10,29.88,24,9,32,0.00
2013-2-18,27,17,9,14,10,5,86,73,57,30.30,30.05,18,5,26,0.00
2013-2-19,36,28,19,33,22,11,95,79,63,30.06,29.61,20,4,30,0.10
2013-2-20,28,24,20,20,16,12,89,73,57,29.98,29.73,24,12,37,0.00
2013-2-21,20,16,12,17,14,9,93,88,84,30.44,29.95,20,8,28,0.00
2013-2-22,34,26,12,26,20,10,94,81,65,30.44,30.10,9,2,18,0.00
2013-2-23,35,33,32,33,30,24,98,89,72,30.10,29.85,6,1,10,0.00
2013-2-24,33,31,29,31,28,25,97,88,74,30.00,29.84,15,4,22,0.00
2013-2-25,36,31,22,32,28,20,95,89,77,30.25,30.00,11,3,16,0.00
2013-2-26,44,32,18,31,25,17,96,77,52,30.27,29.92,11,2,21,0.06
2013-2-27,39,35,32,36,32,29,98,92,83,29.93,29.55,14,4,26,0.20
2013-2-28,37,34,32,35,33,31,98,94,89,29.66,29.54,6,0,9,0.00
2013-3-1,33,31,28,32,28,24,97,91,84,29.87,29.66,15,6,21,0.00
2013-3-2,28,24,22,24,20,17,90,87,83,29.89,29.84,15,6,20,0.00
2013-3-3,26,22,19,21,18,16,92,85,75,29.86,29.81,15,6,22,0.00
2013-3-4,28,25,23,24,22,20,91,87,82,30.00,29.83,18,10,26,0.00
2013-3-5,37,28,22,27,23,20,94,82,66,30.10,29.99,11,2,16,0.00
2013-3-6,43,33,22,33,26,20,94,78,60,30.13,30.01,8,1,15,0.00
2013-3-7,37,33,28,28,26,22,95,74,58,30.22,30.12,9,2,13,0.00
2013-3-8,39,31,25,30,26,23,96,83,66,30.37,30.20,17,7,25,0.00
2013-3-9,48,32,23,34,26,22,98,81,44,30.41,30.28,11,2,14,0.00
2013-3-10,59,42,25,32,25,22,93,57,26,30.28,30.06,12,3,18,0.00
2013-3-11,56,48,42,42,34,27,72,59,43,30.09,29.76,16,3,30,0.00
2013-3-12,53,42,35,48,38,30,98,89,72,29.89,29.72,13,3,17,0.39
2013-3-13,42,34,27,32,28,20,96,79,54,29.90,29.80,18,6,28,0.00
2013-3-14,28,24,18,23,17,12,92,76,59,30.00,29.87,28,13,38,0.00
2013-3-15,36,29,19,33,23,14,93,80,67,30.01,29.67,18,6,27,0.00
2013-3-16,30,25,19,23,16,13,83,71,60,29.98,29.83,10,3,14,0.00
2013-3-17,32,24,16,20,16,11,91,71,48,30.35,29.97,15,4,21,0.00
2013-3-18,34,24,13,27,16,10,96,74,41,30.41,29.89,12,3,22,0.00
2013-3-19,40,30,26,35,27,20,97,90,70,29.89,29.67,16,5,27,0.00
2013-3-20,36,28,23,26,21,18,88,76,50,29.82,29.77,21,7,28,0.00
2013-3-21,33,27,21,22,17,13,87,67,46,29.81,29.70,14,5,20,0.00
2013-3-22,30,28,25,28,25,22,96,88,73,29.86,29.69,22,7,29,0.00
2013-3-23,37,32,28,28,26,24,97,82,66,29.95,29.83,18,9,26,0.00
2013-3-24,40,34,26,27,25,22,86,71,50,29.95,29.74,12,4,16,0.00
2013-3-25,45,35,26,29,26,21,86,70,46,29.75,29.56,10,2,15,0.00
2013-3-26,44,36,29,32,28,25,88,74,55,29.90,29.65,14,5,22,0.00
2013-3-27,45,36,26,34,30,23,94,79,59,30.01,29.88,16,5,22,0.00
2013-3-28,45,38,34,36,32,30,92,80,63,30.16,30.00,15,6,20,0.00
2013-3-29,45,39,32,37,32,29,91,77,66,30.17,30.11,13,5,17,0.00
2013-3-30,51,39,29,35,28,24,92,68,38,30.19,30.08,13,3,17,0.00
2013-3-31,56,40,27,42,33,24,98,79,40,30.08,29.65,19,2,30,0.35
2013-4-1,42,36,28,42,31,20,99,82,54,29.91,29.56,26,9,38,0.18
2013-4-2,34,28,25,28,25,23,95,89,69,30.06,29.90,24,10,36,0.00
2013-4-3,35,31,27,26,22,20,94,69,55,30.33,30.05,25,11,34,0.00
2013-4-4,52,40,30,31,25,20,76,57,36,30.35,29.91,11,4,18,0.00
2013-4-5,45,40,31,35,27,18,80,62,36,30.06,29.86,19,7,26,0.00
2013-4-6,46,36,28,28,17,10,73,47,29,30.34,30.06,12,4,18,0.00
2013-4-7,67,50,37,44,32,19,76,52,37,30.15,29.74,17,6,26,0.00
2013-4-8,60,49,40,42,38,36,85,68,47,30.13,29.81,10,4,20,0.00
2013-4-9,55,49,44,49,44,41,97,83,64,30.10,29.75,20,5,29,0.40
2013-4-10,53,47,44,52,46,42,99,97,88,30.04,29.83,13,1,20,0.75
2013-4-11,44,39,34,43,36,31,97,90,73,30.13,29.92,11,2,18,0.17
2013-4-12,40,37,34,39,36,32,99,96,90,30.03,29.65,14,4,28,0.86
2013-4-13,50,43,39,40,38,37,99,83,63,29.93,29.78,20,4,29,0.03
2013-4-14,47,40,32,37,34,30,94,78,58,30.22,29.92,17,5,30,0.05
2013-4-15,68,50,31,48,38,29,93,67,43,30.26,30.09,14,3,21,0.00
2013-4-16,64,56,46,57,50,40,98,78,59,30.19,29.93,19,8,29,0.34
2013-4-17,57,48,38,41,37,34,88,69,42,30.33,30.19,14,5,20,0.00
2013-4-18,71,56,38,55,45,34,91,68,49,30.27,29.83,22,6,30,0.04
2013-4-19,75,62,43,61,54,38,96,76,53,29.84,29.40,24,8,36,0.94
2013-4-20,47,41,35,38,32,23,82,69,48,30.38,29.72,28,10,38,0.01
2013-4-21,47,39,32,29,26,22,83,61,42,30.67,30.38,14,6,21,0.00
2013-4-22,61,46,29,33,28,26,93,56,28,30.64,30.40,11,2,17,0.00
2013-4-23,64,49,35,43,35,27,84,62,30,30.41,30.04,11,3,18,0.00
2013-4-24,72,55,41,57,46,39,94,76,50,30.04,29.62,25,6,34,0.17
2013-4-25,57,47,39,39,34,27,90,62,33,30.27,29.92,23,6,35,0.01
2013-4-26,55,46,38,43,38,33,96,74,43,30.46,30.27,15,3,22,0.06
2013-4-27,66,49,32,42,36,26,97,67,30,30.45,30.25,8,1,10,0.00
2013-4-28,76,59,40,48,41,37,94,57,27,30.25,30.03,12,3,17,0.00
2013-4-29,60,54,50,53,50,44,95,84,56,30.12,30.06,13,2,21,0.33
2013-4-30,70,60,52,56,52,48,92,75,57,30.24,30.12,9,2,17,0.01
2013-5-1,80,63,45,50,44,36,96,57,26,30.39,30.24,10,2,14,0.00
2013-5-2,77,63,45,52,45,38,85,55,32,30.43,30.24,7,1,10,0.00
2013-5-3,76,64,52,52,44,37,78,50,33,30.35,30.22,10,3,15,0.00
2013-5-4,78,61,42,54,44,36,90,57,26,30.31,30.13,11,1,13,0.00
2013-5-5,80,63,46,55,45,33,93,58,21,30.22,30.06,7,1,15,0.00
2013-5-6,80,61,42,51,41,30,91,54,17,30.20,30.01,9,1,14,0.00
2013-5-7,82,65,48,61,52,44,97,68,33,30.12,29.98,8,1,13,0.00
2013-5-8,71,61,51,65,57,49,98,88,70,30.07,29.91,6,1,12,0.16
2013-5-9,74,60,52,61,56,51,100,87,55,29.93,29.85,8,1,12,0.03
2013-5-10,74,63,50,64,57,49,100,83,52,29.96,29.73,12,2,21,0.39
2013-5-11,64,57,48,61,54,47,98,91,81,29.75,29.63,14,3,22,0.20
2013-5-12,57,48,39,49,39,28,99,75,35,29.89,29.67,22,8,34,0.03
2013-5-13,52,44,39,36,34,30,87,68,49,30.09,29.88,20,8,28,0.01
2013-5-14,57,46,35,38,33,25,91,64,30,30.15,30.01,10,3,15,0.00
2013-5-15,76,53,36,60,45,32,96,74,52,30.01,29.52,18,3,27,0.09
2013-5-16,73,60,47,54,47,44,91,64,37,29.94,29.69,19,6,26,0.00
2013-5-17,68,56,47,50,45,41,90,67,42,30.22,29.94,12,4,18,0.00
2013-5-18,75,58,40,55,48,39,99,72,36,30.28,30.15,8,1,10,0.00
2013-5-19,66,60,51,61,56,50,94,87,75,30.19,30.05,7,1,12,0.01
2013-5-20,84,69,58,69,63,57,97,81,53,30.07,29.86,6,1,9,0.00
2013-5-21,86,72,62,74,66,61,100,85,53,29.89,29.71,14,1,21,0.67
2013-5-22,84,71,62,74,67,62,100,88,64,29.79,29.66,11,1,21,0.04
2013-5-23,79,69,58,68,63,57,99,83,58,29.74,29.67,18,3,33,0.47
2013-5-24,58,46,43,57,44,40,98,92,84,30.10,29.71,17,8,28,0.31
2013-5-25,55,50,46,44,42,40,84,74,60,30.11,30.05,22,8,29,0.00
2013-5-26,61,54,45,44,42,39,85,66,46,30.15,30.01,19,8,28,0.00
2013-5-27,70,56,43,49,42,36,88,62,30,30.25,30.13,14,4,20,0.00
2013-5-28,66,55,41,57,49,39,97,82,57,30.17,29.98,8,1,13,0.16
2013-5-29,83,66,57,72,63,56,100,92,64,30.00,29.88,25,1,43,1.20
2013-5-30,86,72,60,75,67,60,100,87,58,30.09,29.99,6,1,9,0.00
2013-5-31,90,75,62,76,68,61,100,81,48,30.07,29.88,6,0,8,0.00
2013-6-1,90,76,63,74,68,62,99,78,52,29.93,29.75,16,2,26,0.00
2013-6-2,83,72,65,71,66,58,100,82,56,29.81,29.66,14,3,20,0.04
2013-6-3,66,58,50,60,49,42,86,73,55,29.97,29.81,15,6,23,0.00
2013-6-4,68,57,48,50,46,43,89,68,44,30.14,29.97,13,5,23,0.00
2013-6-5,73,60,46,56,49,41,97,70,35,30.20,30.07,6,1,12,0.00
2013-6-6,61,57,54,59,54,48,99,91,74,30.08,29.89,6,1,14,1.54
2013-6-7,61,58,55,60,57,55,100,98,92,29.89,29.77,9,2,17,0.20
2013-6-8,63,60,56,61,58,56,100,96,89,30.05,29.75,11,2,16,0.05
2013-6-9,78,65,54,63,58,54,100,81,49,30.17,30.05,9,2,12,0.00
2013-6-10,68,61,55,63,60,54,99,96,82,30.15,29.76,7,1,14,0.33
2013-6-11,66,62,59,66,61,57,100,98,94,29.76,29.60,14,4,24,0.27
2013-6-12,75,63,56,61,58,55,97,83,59,29.88,29.75,14,4,25,0.00
2013-6-13,59,58,56,59,57,55,100,98,96,29.79,29.57,9,2,21,2.16
2013-6-14,73,62,53,64,58,53,100,89,70,29.91,29.72,13,4,24,0.01
2013-6-15,74,63,52,62,56,51,100,79,50,30.01,29.91,11,3,16,0.00
2013-6-16,69,62,52,67,59,52,99,92,68,29.93,29.68,10,2,18,0.30
2013-6-17,77,67,59,69,63,58,100,88,65,29.90,29.78,12,2,22,0.12
2013-6-18,74,62,56,62,58,52,99,85,52,29.98,29.86,6,1,12,0.01
2013-6-19,70,60,49,54,49,45,97,70,44,30.18,29.98,13,3,18,0.00
2013-6-20,79,62,45,60,52,44,99,74,40,30.26,30.17,6,1,9,0.00
2013-6-21,84,66,50,65,56,50,100,76,36,30.26,30.15,6,1,9,0.00
2013-6-22,87,72,58,74,66,57,98,82,45,30.16,29.99,10,1,15,0.00
2013-6-23,88,76,68,77,70,67,99,84,64,30.05,29.96,18,2,26,0.13
2013-6-24,88,72,65,78,70,65,100,93,65,30.00,29.90,22,1,33,0.79
2013-6-25,81,72,63,76,69,63,100,93,76,29.94,29.75,11,1,17,0.16
2013-6-26,85,73,66,75,70,66,100,91,65,29.79,29.74,9,1,12,0.81
2013-6-27,84,71,62,76,69,62,100,92,67,29.78,29.58,7,0,10,0.42
2013-6-28,76,69,64,70,67,63,100,93,77,29.58,29.44,10,2,15,0.91
2013-6-29,75,68,62,70,65,62,99,92,75,29.67,29.47,11,1,17,0.15
2013-6-30,83,72,61,72,66,61,100,85,62,29.88,29.66,9,2,13,0.00
2013-7-1,74,70,66,72,69,65,100,97,91,29.97,29.87,4,0,9,0.66
2013-7-2,84,73,67,78,72,67,100,97,80,30.06,29.96,13,0,17,0.90
2013-7-3,87,76,69,78,72,69,100,91,70,30.13,30.05,8,1,12,0.18
2013-7-4,86,77,70,77,73,70,100,90,70,30.14,30.06,12,1,22,0.00
2013-7-5,88,76,69,79,74,69,100,93,73,30.11,30.02,8,1,15,0.65
2013-7-6,85,76,70,75,72,68,100,88,65,30.11,30.00,9,2,14,0.04
2013-7-7,87,77,70,78,73,69,100,89,70,30.04,29.88,15,2,23,0.97
2013-7-8,86,75,68,75,71,66,99,87,66,30.02,29.93,8,2,14,0.01
2013-7-9,89,75,66,78,72,66,100,91,62,30.03,29.89,6,0,9,0.12
2013-7-10,85,76,69,77,72,68,100,90,72,29.90,29.68,14,2,23,0.25
2013-7-11,79,72,66,70,66,62,97,81,65,29.99,29.75,12,4,17,0.00
2013-7-12,81,70,61,69,64,60,99,83,56,30.14,29.99,6,0,12,0.00
2013-7-13,80,72,64,73,68,63,99,89,72,30.23,30.14,6,1,12,0.00
2013-7-14,90,78,67,78,72,66,100,86,62,30.29,30.19,6,1,8,0.00
2013-7-15,90,79,69,78,72,68,100,82,60,30.25,30.17,10,2,15,0.00
2013-7-16,92,78,66,78,71,66,99,81,55,30.23,30.15,9,2,13,0.00
2013-7-17,94,80,67,82,74,66,100,84,59,30.20,30.01,7,1,14,0.00
2013-7-18,92,82,74,81,76,72,98,82,62,30.03,29.90,12,2,18,0.00
2013-7-19,94,83,69,80,73,67,97,75,50,29.91,29.67,30,5,48,0.18
2013-7-20,79,71,64,72,68,62,99,89,74,29.84,29.68,13,3,20,0.28
2013-7-21,81,71,63,68,63,60,98,78,51,29.97,29.84,11,2,14,0.00
2013-7-22,84,72,60,75,67,59,97,86,67,29.97,29.76,6,1,10,0.01
2013-7-23,86,73,67,75,70,66,100,90,62,29.76,29.56,8,1,15,0.36
2013-7-24,72,64,53,70,58,52,95,80,68,30.02,29.60,14,6,25,0.00
2013-7-25,79,63,49,61,55,49,100,79,45,30.11,30.02,7,1,9,0.00
2013-7-26,82,66,52,64,58,51,100,79,46,30.09,29.98,9,2,12,0.00
2013-7-27,82,68,55,70,63,54,100,86,53,30.00,29.84,8,1,14,0.40
2013-7-28,74,68,62,71,67,61,100,97,82,29.96,29.83,14,1,24,2.21
2013-7-29,77,65,57,66,60,57,100,85,53,30.10,29.96,12,2,18,0.02
2013-7-30,76,66,59,67,60,57,95,82,60,30.17,30.09,12,4,20,0.00
2013-7-31,80,67,55,68,62,54,100,84,57,30.15,29.94,5,0,7,0.00
2013-8-1,78,67,60,72,65,59,99,93,74,29.94,29.74,13,1,23,0.17
2013-8-2,78,68,60,67,63,59,98,84,62,29.87,29.80,14,2,22,0.00
2013-8-3,76,67,60,66,61,56,100,83,54,29.88,29.78,14,4,23,0.05
2013-8-4,73,66,60,63,59,55,93,78,63,29.99,29.86,15,5,23,0.00
2013-8-5,76,61,52,60,55,51,97,82,46,30.08,29.99,9,1,13,0.00
2013-8-6,82,65,50,66,58,49,100,81,45,30.07,30.01,9,1,14,0.00
2013-8-7,76,70,63,69,65,60,93,84,74,30.04,29.92,10,2,20,0.00
2013-8-8,84,74,66,77,70,65,99,89,72,29.96,29.86,6,1,9,0.11
2013-8-9,78,71,66,75,70,65,100,96,85,29.90,29.78,11,2,16,0.07
2013-8-10,73,67,56,65,58,51,97,76,51,30.07,29.87,14,4,22,0.00
2013-8-11,77,64,51,65,57,50,100,80,53,30.12,30.01,10,2,14,0.00
2013-8-12,78,66,55,68,62,54,100,86,61,30.03,29.85,5,0,8,0.00
2013-8-13,75,67,61,70,63,53,100,89,74,29.85,29.68,20,4,29,0.75
2013-8-14,69,61,55,60,54,51,90,79,66,30.02,29.77,16,6,29,0.01
2013-8-15,75,63,54,60,56,51,92,77,55,30.11,30.02,11,3,16,0.00
2013-8-16,77,64,50,65,57,50,100,81,51,30.19,30.10,7,1,9,0.00
2013-8-17,83,65,51,66,59,51,100,83,44,30.30,30.19,5,0,8,0.00
2013-8-18,77,66,56,69,62,56,99,88,65,30.25,30.09,4,0,6,0.00
2013-8-19,84,69,58,70,63,58,100,83,50,30.09,29.99,8,1,12,0.00
2013-8-20,84,69,55,72,64,55,100,86,59,30.11,30.03,8,1,10,0.00
2013-8-21,86,70,58,73,66,58,100,86,57,30.15,29.99,6,0,7,0.00
2013-8-22,87,71,60,74,68,59,100,90,62,30.00,29.84,17,1,26,0.21
2013-8-23,77,67,57,69,62,56,98,83,60,30.17,29.92,12,2,17,0.00
2013-8-24,78,63,50,63,56,50,100,82,46,30.34,30.17,6,0,8,0.00
2013-8-25,80,65,52,69,60,51,99,85,58,30.36,30.10,6,0,9,0.00
2013-8-26,76,69,64,71,67,62,99,93,77,30.13,29.88,11,1,18,0.64
2013-8-27,80,72,65,74,70,65,100,94,79,29.92,29.84,5,1,7,0.19
2013-8-28,87,73,65,77,70,65,100,91,61,29.88,29.80,9,0,13,0.00
2013-8-29,86,73,63,75,69,63,100,89,63,30.00,29.88,10,2,16,0.00
2013-8-30,82,72,64,74,69,63,99,89,66,29.98,29.75,5,0,9,0.15
2013-8-31,83,73,68,77,71,68,100,92,75,29.81,29.70,14,2,18,0.42
2013-9-1,83,74,68,75,71,68,99,90,72,29.83,29.72,6,0,9,0.00
2013-9-2,83,70,66,77,68,64,100,95,69,29.78,29.59,22,1,36,1.64
2013-9-3,71,65,60,65,60,57,97,86,65,29.88,29.73,13,4,20,0.00
2013-9-4,78,68,58,64,60,54,94,77,55,29.95,29.88,13,4,22,0.05
2013-9-5,69,62,50,64,52,44,94,72,48,30.18,29.89,14,4,21,0.00
2013-9-6,70,55,42,57,49,42,99,81,49,30.28,30.09,7,1,12,0.00
2013-9-7,69,59,50,64,57,49,99,93,70,30.09,29.85,9,0,12,0.14
2013-9-8,68,61,48,63,53,44,99,77,47,30.11,29.81,13,3,20,0.13
2013-9-9,75,58,42,63,52,42,99,81,45,30.19,29.99,8,1,14,0.00
2013-9-10,88,72,61,79,69,58,100,92,71,30.06,29.91,8,1,13,0.75
2013-9-11,93,76,68,80,72,68,100,90,62,30.01,29.87,20,1,27,0.71
2013-9-12,78,68,64,71,67,62,100,97,78,29.87,29.67,12,1,17,0.41
2013-9-13,64,58,52,63,55,48,98,90,83,29.95,29.65,13,5,20,0.01
2013-9-14,62,53,47,53,48,46,96,83,64,30.12,29.94,13,4,20,0.00
2013-9-15,69,55,42,59,51,42,99,88,61,30.17,30.03,8,0,12,0.00
2013-9-16,60,54,47,58,51,42,98,89,73,30.36,30.05,17,4,28,0.10
2013-9-17,64,50,38,53,44,37,99,84,50,30.50,30.32,6,1,10,0.00
2013-9-18,72,55,41,61,50,40,100,86,58,30.32,30.12,7,1,10,0.00
2013-9-19,75,59,45,64,54,45,100,86,55,30.14,30.01,5,0,7,0.00
2013-9-20,82,64,50,66,58,50,100,83,52,30.02,29.84,9,1,15,0.00
2013-9-21,70,65,59,63,60,58,99,86,74,29.84,29.56,13,3,23,0.75
2013-9-22,59,55,52,58,49,43,99,83,61,29.98,29.62,17,7,25,0.05
2013-9-23,58,51,45,46,44,42,96,78,62,30.11,29.97,12,4,20,0.00
2013-9-24,63,51,42,52,46,41,99,85,62,30.12,29.98,13,3,20,0.00
2013-9-25,71,53,40,57,48,39,100,85,47,30.01,29.92,10,2,15,0.00
2013-9-26,71,56,43,59,51,43,100,86,63,30.12,29.98,8,1,13,0.00
2013-9-27,70,56,45,59,52,45,99,86,62,30.26,30.12,8,1,12,0.00
2013-9-28,75,57,46,61,53,46,100,87,52,30.33,30.20,6,1,12,0.00
2013-9-29,74,58,46,60,52,45,100,83,50,30.20,30.02,9,1,13,0.00
2013-9-30,77,59,46,62,54,46,100,85,43,30.04,29.94,6,0,9,0.00
2013-10-1,74,60,52,64,56,51,98,89,64,30.01,29.91,7,0,8,0.00
2013-10-2,75,61,52,67,58,51,100,89,66,30.04,29.90,12,2,18,0.00
2013-10-3,70,58,48,60,53,47,100,86,56,30.14,30.02,6,1,8,0.00
2013-10-4,64,59,55,62,58,53,99,96,88,30.04,29.98,4,0,8,0.15
2013-10-5,64,61,59,63,60,58,99,97,93,30.08,30.02,5,0,8,0.01
2013-10-6,67,60,56,65,59,54,99,96,91,30.03,29.85,9,2,20,1.24
2013-10-7,74,62,52,67,59,48,98,90,71,29.96,29.61,19,3,26,1.05
2013-10-8,64,54,45,52,48,44,99,80,57,30.36,29.96,12,2,20,0.00
2013-10-9,68,51,39,53,45,38,99,83,46,30.44,30.30,8,1,13,0.00
2013-10-10,67,52,41,54,46,40,98,85,49,30.30,30.16,7,0,9,0.00
2013-10-11,67,53,46,55,49,45,98,88,55,30.16,30.09,5,0,7,0.00
2013-10-12,76,58,43,58,50,43,99,79,50,30.26,30.13,9,2,15,0.00
2013-10-13,71,60,48,62,54,47,98,83,60,30.33,30.23,8,1,13,0.00
2013-10-14,63,58,56,57,55,51,98,90,66,30.30,30.25,6,1,9,0.03
2013-10-15,66,58,50,59,55,50,100,91,70,30.27,30.01,5,0,8,0.00
2013-10-16,67,60,55,58,54,49,98,82,61,30.01,29.78,9,1,14,0.26
2013-10-17,66,58,51,58,53,50,97,84,56,29.87,29.64,10,2,15,0.69
2013-10-18,61,55,49,52,47,38,98,78,44,29.91,29.63,21,6,29,0.07
2013-10-19,65,52,44,50,46,42,98,81,46,29.90,29.65,22,3,29,0.16
2013-10-20,58,50,43,45,42,38,89,74,51,29.99,29.70,18,6,26,0.06
2013-10-21,66,56,44,48,44,41,93,66,41,30.02,29.80,12,2,20,0.00
2013-10-22,59,50,44,51,41,33,97,72,47,29.83,29.72,19,4,27,0.07
2013-10-23,51,43,38,42,38,33,95,81,67,29.81,29.65,16,3,23,0.04
2013-10-24,51,41,34,39,36,31,95,82,50,29.95,29.75,20,7,34,0.31
2013-10-25,50,42,39,42,38,35,95,85,65,30.16,29.95,17,4,25,0.03
2013-10-26,48,44,40,38,35,30,93,70,53,30.13,29.80,14,4,20,0.00
2013-10-27,48,44,42,41,38,35,88,80,67,30.05,29.79,18,6,27,0.01
2013-10-28,53,45,31,43,35,27,87,69,52,30.39,30.03,16,5,24,0.00
2013-10-29,48,35,25,33,27,19,95,74,31,30.49,30.32,5,0,12,0.00
2013-10-30,53,41,35,45,37,28,96,85,70,30.32,30.16,5,0,7,0.04
2013-10-31,61,52,39,59,50,38,99,94,89,30.16,29.50,13,2,18,0.68
2013-11-1,69,62,52,61,52,43,92,71,40,29.67,29.23,22,9,37,0.35
2013-11-2,56,48,40,49,44,36,96,87,69,29.92,29.61,11,3,17,0.05
2013-11-3,41,36,28,36,27,22,87,71,55,30.54,29.92,11,4,20,0.00
2013-11-4,45,33,23,28,24,21,94,69,41,30.69,30.54,9,1,12,0.00
2013-11-5,58,44,30,40,33,23,85,64,49,30.57,30.38,9,1,13,0.00
2013-11-6,65,56,48,52,46,40,82,70,55,30.38,29.82,17,6,31,0.01
2013-11-7,61,46,36,54,43,34,96,89,71,29.94,29.75,19,7,30,0.80
2013-11-8,42,38,34,36,33,29,97,82,66,30.20,29.90,25,8,36,0.29
2013-11-9,47,41,36,40,34,29,96,77,57,30.22,29.80,9,1,15,0.05
2013-11-10,49,44,40,43,39,33,93,82,64,30.07,29.75,29,9,41,0.26
2013-11-11,46,41,35,38,36,32,94,81,64,30.15,29.92,21,6,32,0.04
2013-11-12,35,31,28,32,24,18,90,76,61,30.35,30.03,21,9,32,0.09
2013-11-13,38,30,26,26,22,18,87,70,57,30.42,30.12,19,5,28,0.00
2013-11-14,53,36,25,30,23,19,89,64,32,30.13,30.03,16,2,24,0.00
2013-11-15,58,42,28,34,27,22,84,57,32,30.15,30.07,10,1,15,0.00
2013-11-16,60,47,33,42,35,28,89,64,40,30.27,30.12,7,1,10,0.00
2013-11-17,62,55,44,56,50,39,92,85,79,30.13,29.45,15,3,29,0.16
2013-11-18,63,51,39,57,41,29,90,68,49,29.81,29.37,34,12,46,0.27
2013-11-19,39,35,29,34,28,20,94,75,66,30.45,29.80,23,9,37,0.07
2013-11-20,41,29,21,26,21,18,92,71,52,30.63,30.45,7,1,10,0.00
2013-11-21,48,37,25,38,27,18,91,69,51,30.57,30.29,11,1,14,0.02
2013-11-22,46,42,38,45,41,35,99,96,83,30.29,29.93,23,3,35,0.26
2013-11-23,39,32,21,35,26,16,94,80,49,30.11,29.90,32,12,40,0.01
2013-11-24,25,22,17,21,16,11,93,80,58,30.38,30.05,26,12,36,0.00
2013-11-25,35,28,18,24,18,13,92,69,42,30.41,30.14,18,3,25,0.00
2013-11-26,36,34,31,33,29,18,97,84,52,30.21,29.83,9,2,14,0.49
2013-11-27,37,34,27,36,33,24,98,94,81,29.83,29.51,27,9,39,1.00
2013-11-28,30,25,22,24,20,16,94,82,57,30.45,29.78,26,8,36,0.00
2013-11-29,30,22,12,25,18,10,94,84,67,30.78,30.44,11,2,18,0.00
2013-11-30,32,20,8,25,15,5,92,81,65,30.78,30.28,8,1,13,0.00
2013-12-1,40,34,26,33,29,23,96,83,70,30.28,29.99,6,0,8,0.00
2013-12-2,39,35,34,36,34,32,96,93,86,30.00,29.87,2,0,5,0.00
2013-12-3,42,34,28,37,32,26,99,91,72,30.03,29.89,0,0,0,0.00
2013-12-4,44,34,25,38,31,24,97,89,78,30.10,30.00,7,1,14,0.00
2013-12-5,58,49,36,54,45,32,95,86,82,30.03,29.80,13,5,21,0.05
2013-12-6,41,36,32,39,33,28,97,87,75,30.22,29.96,14,5,20,0.33
2013-12-7,33,31,28,31,26,20,95,82,69,30.53,30.19,17,7,27,0.00
2013-12-8,32,28,25,25,20,17,89,74,62,30.59,30.33,11,2,15,0.00
2013-12-9,44,34,27,38,30,24,95,85,68,30.33,29.86,20,6,29,0.01
2013-12-10,37,29,24,28,21,14,86,72,58,30.04,29.89,22,9,30,0.00
2013-12-11,29,25,20,20,16,12,91,67,56,30.24,30.04,22,9,30,0.00
2013-12-12,23,18,8,18,12,5,91,77,59,30.34,30.02,17,4,25,0.00
2013-12-13,24,20,10,22,15,2,93,80,69,30.44,29.99,21,7,33,0.00
2013-12-14,15,11,8,12,6,1,90,80,71,30.52,29.89,10,2,23,0.00
2013-12-15,26,23,15,23,19,12,93,88,67,29.89,29.63,23,5,28,0.00
2013-12-16,23,15,-1,17,10,-4,92,84,64,30.23,29.79,19,4,30,0.00
2013-12-17,16,9,-2,14,6,-5,90,89,87,30.22,29.97,8,1,12,0.00
2013-12-18,32,26,14,24,20,12,93,78,66,30.08,29.97,17,5,26,0.00
2013-12-19,42,34,28,30,25,20,87,71,54,30.07,29.94,17,3,26,0.02
2013-12-20,42,37,33,42,35,30,99,94,86,30.03,29.81,3,0,6,0.25
2013-12-21,54,46,33,51,44,33,99,95,84,29.85,29.77,15,3,23,0.66
2013-12-22,40,36,33,39,35,32,99,98,95,29.99,29.53,14,2,21,0.14
2013-12-23,38,35,26,38,34,23,99,96,88,30.24,29.98,11,3,17,0.08
2013-12-24,26,21,11,23,18,8,93,88,79,30.45,30.20,13,3,20,0.00
2013-12-25,20,11,-1,15,7,-3,92,83,73,30.58,30.30,7,1,12,0.00
2013-12-26,33,26,20,28,22,14,95,87,71,30.31,30.09,12,2,17,0.00
2013-12-27,32,27,21,28,22,16,94,82,72,30.28,30.15,15,4,23,0.00
2013-12-28,42,29,18,34,26,16,97,90,75,30.15,29.97,9,1,14,0.00
2013-12-29,38,31,25,37,30,24,99,97,89,29.97,29.63,11,0,16,0.42
2013-12-30,37,20,11,35,17,8,95,87,78,30.23,29.68,26,9,36,0.00
2013-12-31,25,16,11,20,10,4,90,76,56,30.23,29.98,28,5,39,0.00
2014-1-1,19,17,12,15,11,7,88,76,65,30.41,30.22,16,4,24,0.00
2014-1-2,12,9,0,9,6,-3,90,89,86,30.35,29.96,7,1,9,0.00